sensor_id;sensor_type;location;lat;lon;timestamp;P1;durP1;ratioP1;P2;durP2;ratioP2
41755;SDS011;27435;48.480;9.258;2023-03-12T00:00:31;7.53;;;2.10;;
41755;SDS011;27435;48.480;9.258;2023-03-12T00:02:57;4.97;;;2.33;;
41755;SDS011;27435;48.480;9.258;2023-03-12T00:05:22;7.10;;;2.60;;
41755;SDS011;27435;48.480;9.258;2023-03-12T00:07:50;6.30;;;2.60;;
41755;SDS011;27435;48.480;9.258;2023-03-12T00:10:16;4.17;;;1.90;;
41755;SDS011;27435;48.480;9.258;2023-03-12T00:12:42;7.73;;;2.40;;
41755;SDS011;27435;48.480;9.258;2023-03-12T00:15:08;4.83;;;1.80;;
41755;SDS011;27435;48.480;9.258;2023-03-12T00:17:34;6.30;;;2.40;;
41755;SDS011;27435;48.480;9.258;2023-03-12T00:19:59;7.33;;;2.60;;
41755;SDS011;27435;48.480;9.258;2023-03-12T00:22:25;5.27;;;2.27;;
41755;SDS011;27435;48.480;9.258;2023-03-12T00:24:55;5.47;;;2.37;;
41755;SDS011;27435;48.480;9.258;2023-03-12T00:27:21;5.57;;;2.10;;
41755;SDS011;27435;48.480;9.258;2023-03-12T00:29:47;9.33;;;2.50;;
41755;SDS011;27435;48.480;9.258;2023-03-12T00:32:13;6.00;;;2.73;;
41755;SDS011;27435;48.480;9.258;2023-03-12T00:34:39;5.73;;;2.20;;
41755;SDS011;27435;48.480;9.258;2023-03-12T00:37:05;5.17;;;2.60;;
41755;SDS011;27435;48.480;9.258;2023-03-12T00:39:32;8.00;;;2.67;;
41755;SDS011;27435;48.480;9.258;2023-03-12T00:41:58;8.60;;;2.90;;
41755;SDS011;27435;48.480;9.258;2023-03-12T00:44:23;7.93;;;2.70;;
41755;SDS011;27435;48.480;9.258;2023-03-12T00:46:49;7.33;;;2.57;;
41755;SDS011;27435;48.480;9.258;2023-03-12T00:49:15;9.20;;;2.87;;
41755;SDS011;27435;48.480;9.258;2023-03-12T00:51:41;12.17;;;2.80;;
41755;SDS011;27435;48.480;9.258;2023-03-12T00:54:07;6.63;;;2.87;;
41755;SDS011;27435;48.480;9.258;2023-03-12T00:56:32;6.90;;;2.37;;
41755;SDS011;27435;48.480;9.258;2023-03-12T00:58:58;6.10;;;2.23;;
41755;SDS011;27435;48.480;9.258;2023-03-12T01:01:24;5.77;;;2.60;;
41755;SDS011;27435;48.480;9.258;2023-03-12T01:03:51;4.77;;;2.37;;
41755;SDS011;27435;48.480;9.258;2023-03-12T01:06:17;7.73;;;2.63;;
41755;SDS011;27435;48.480;9.258;2023-03-12T01:08:43;6.80;;;2.67;;
41755;SDS011;27435;48.480;9.258;2023-03-12T01:11:13;6.77;;;2.57;;
41755;SDS011;27435;48.480;9.258;2023-03-12T01:13:40;8.87;;;2.40;;
41755;SDS011;27435;48.480;9.258;2023-03-12T01:16:05;6.60;;;2.67;;
41755;SDS011;27435;48.480;9.258;2023-03-12T01:18:31;6.00;;;2.53;;
41755;SDS011;27435;48.480;9.258;2023-03-12T01:20:57;7.07;;;2.80;;
41755;SDS011;27435;48.480;9.258;2023-03-12T01:23:23;6.43;;;2.50;;
41755;SDS011;27435;48.480;9.258;2023-03-12T01:25:49;8.87;;;2.40;;
41755;SDS011;27435;48.480;9.258;2023-03-12T01:28:16;10.10;;;2.97;;
41755;SDS011;27435;48.480;9.258;2023-03-12T01:30:42;12.67;;;4.17;;
41755;SDS011;27435;48.480;9.258;2023-03-12T01:33:08;10.37;;;3.67;;
41755;SDS011;27435;48.480;9.258;2023-03-12T01:35:37;6.53;;;2.77;;
41755;SDS011;27435;48.480;9.258;2023-03-12T01:38:04;9.53;;;2.60;;
41755;SDS011;27435;48.480;9.258;2023-03-12T01:40:32;5.77;;;2.63;;
41755;SDS011;27435;48.480;9.258;2023-03-12T01:43:13;6.83;;;2.57;;
41755;SDS011;27435;48.480;9.258;2023-03-12T01:48:43;7.37;;;2.87;;
41755;SDS011;27435;48.480;9.258;2023-03-12T01:51:13;8.77;;;3.20;;
41755;SDS011;27435;48.480;9.258;2023-03-12T01:53:41;8.67;;;3.23;;
41755;SDS011;27435;48.480;9.258;2023-03-12T01:56:10;7.93;;;3.23;;
41755;SDS011;27435;48.480;9.258;2023-03-12T01:58:37;4.97;;;2.67;;
41755;SDS011;27435;48.480;9.258;2023-03-12T02:01:06;9.67;;;2.70;;
41755;SDS011;27435;48.480;9.258;2023-03-12T02:03:32;7.33;;;2.60;;
41755;SDS011;27435;48.480;9.258;2023-03-12T02:06:04;7.57;;;2.60;;
41755;SDS011;27435;48.480;9.258;2023-03-12T02:08:36;8.67;;;2.67;;
41755;SDS011;27435;48.480;9.258;2023-03-12T02:11:05;8.43;;;3.10;;
41755;SDS011;27435;48.480;9.258;2023-03-12T02:13:30;6.23;;;2.47;;
41755;SDS011;27435;48.480;9.258;2023-03-12T02:15:56;7.30;;;3.27;;
41755;SDS011;27435;48.480;9.258;2023-03-12T02:18:22;6.10;;;2.50;;
41755;SDS011;27435;48.480;9.258;2023-03-12T02:26:07;7.40;;;2.50;;
41755;SDS011;27435;48.480;9.258;2023-03-12T02:28:34;7.77;;;2.80;;
41755;SDS011;27435;48.480;9.258;2023-03-12T02:31:06;7.50;;;2.63;;
41755;SDS011;27435;48.480;9.258;2023-03-12T02:33:34;7.27;;;2.90;;
41755;SDS011;27435;48.480;9.258;2023-03-12T02:36:00;8.57;;;2.90;;
41755;SDS011;27435;48.480;9.258;2023-03-12T02:38:45;9.00;;;2.80;;
41755;SDS011;27435;48.480;9.258;2023-03-12T02:43:44;7.80;;;2.90;;
41755;SDS011;27435;48.480;9.258;2023-03-12T02:46:13;7.03;;;3.17;;
41755;SDS011;27435;48.480;9.258;2023-03-12T02:48:39;10.53;;;2.77;;
41755;SDS011;27435;48.480;9.258;2023-03-12T02:51:05;5.33;;;3.10;;
41755;SDS011;27435;48.480;9.258;2023-03-12T02:53:30;7.83;;;2.97;;
41755;SDS011;27435;48.480;9.258;2023-03-12T02:55:56;7.33;;;2.87;;
41755;SDS011;27435;48.480;9.258;2023-03-12T02:58:22;8.30;;;2.90;;
41755;SDS011;27435;48.480;9.258;2023-03-12T03:00:48;8.53;;;2.90;;
41755;SDS011;27435;48.480;9.258;2023-03-12T03:03:14;5.70;;;2.97;;
41755;SDS011;27435;48.480;9.258;2023-03-12T03:05:39;8.57;;;3.43;;
41755;SDS011;27435;48.480;9.258;2023-03-12T03:08:05;6.80;;;3.90;;
41755;SDS011;27435;48.480;9.258;2023-03-12T03:10:31;7.67;;;3.10;;
41755;SDS011;27435;48.480;9.258;2023-03-12T03:12:56;8.27;;;3.27;;
41755;SDS011;27435;48.480;9.258;2023-03-12T03:15:22;7.97;;;3.57;;
41755;SDS011;27435;48.480;9.258;2023-03-12T03:17:48;8.70;;;3.43;;
41755;SDS011;27435;48.480;9.258;2023-03-12T03:20:13;8.83;;;3.00;;
41755;SDS011;27435;48.480;9.258;2023-03-12T03:22:39;9.10;;;3.27;;
41755;SDS011;27435;48.480;9.258;2023-03-12T03:25:05;9.27;;;3.60;;
41755;SDS011;27435;48.480;9.258;2023-03-12T03:27:33;6.33;;;2.80;;
41755;SDS011;27435;48.480;9.258;2023-03-12T03:29:59;5.70;;;2.70;;
41755;SDS011;27435;48.480;9.258;2023-03-12T03:32:24;14.33;;;3.60;;
41755;SDS011;27435;48.480;9.258;2023-03-12T03:34:50;12.83;;;4.07;;
41755;SDS011;27435;48.480;9.258;2023-03-12T03:37:16;11.10;;;3.10;;
41755;SDS011;27435;48.480;9.258;2023-03-12T03:39:41;6.50;;;3.60;;
41755;SDS011;27435;48.480;9.258;2023-03-12T03:42:07;9.30;;;3.20;;
41755;SDS011;27435;48.480;9.258;2023-03-12T03:44:33;12.10;;;2.80;;
41755;SDS011;27435;48.480;9.258;2023-03-12T03:46:58;4.77;;;2.57;;
41755;SDS011;27435;48.480;9.258;2023-03-12T03:49:24;8.03;;;2.70;;
41755;SDS011;27435;48.480;9.258;2023-03-12T03:51:50;8.40;;;2.90;;
41755;SDS011;27435;48.480;9.258;2023-03-12T03:54:16;7.13;;;3.40;;
41755;SDS011;27435;48.480;9.258;2023-03-12T03:56:42;11.97;;;3.20;;
41755;SDS011;27435;48.480;9.258;2023-03-12T03:59:08;5.53;;;2.90;;
41755;SDS011;27435;48.480;9.258;2023-03-12T04:01:34;9.47;;;3.40;;
41755;SDS011;27435;48.480;9.258;2023-03-12T04:04:01;6.90;;;2.90;;
41755;SDS011;27435;48.480;9.258;2023-03-12T04:06:27;6.53;;;3.10;;
41755;SDS011;27435;48.480;9.258;2023-03-12T04:08:53;7.27;;;2.90;;
41755;SDS011;27435;48.480;9.258;2023-03-12T04:11:21;4.67;;;2.70;;
41755;SDS011;27435;48.480;9.258;2023-03-12T04:13:47;10.03;;;4.07;;
41755;SDS011;27435;48.480;9.258;2023-03-12T04:16:13;7.13;;;3.53;;
41755;SDS011;27435;48.480;9.258;2023-03-12T04:18:39;7.20;;;3.10;;
41755;SDS011;27435;48.480;9.258;2023-03-12T04:21:05;8.27;;;2.63;;
41755;SDS011;27435;48.480;9.258;2023-03-12T04:23:33;5.60;;;2.57;;
41755;SDS011;27435;48.480;9.258;2023-03-12T04:25:58;5.77;;;2.70;;
41755;SDS011;27435;48.480;9.258;2023-03-12T04:28:24;7.87;;;3.00;;
41755;SDS011;27435;48.480;9.258;2023-03-12T04:30:54;5.73;;;2.80;;
41755;SDS011;27435;48.480;9.258;2023-03-12T04:33:24;5.83;;;2.63;;
41755;SDS011;27435;48.480;9.258;2023-03-12T04:35:53;9.47;;;2.47;;
41755;SDS011;27435;48.480;9.258;2023-03-12T04:38:20;6.33;;;3.43;;
41755;SDS011;27435;48.480;9.258;2023-03-12T04:40:55;6.23;;;3.10;;
41755;SDS011;27435;48.480;9.258;2023-03-12T04:43:32;5.85;;;2.90;;
41755;SDS011;27435;48.480;9.258;2023-03-12T04:45:59;4.33;;;2.43;;
41755;SDS011;27435;48.480;9.258;2023-03-12T04:48:25;5.73;;;2.40;;
41755;SDS011;27435;48.480;9.258;2023-03-12T04:50:51;6.70;;;2.60;;
41755;SDS011;27435;48.480;9.258;2023-03-12T04:53:17;4.37;;;2.33;;
41755;SDS011;27435;48.480;9.258;2023-03-12T04:55:42;4.33;;;1.97;;
41755;SDS011;27435;48.480;9.258;2023-03-12T04:58:08;4.57;;;2.30;;
41755;SDS011;27435;48.480;9.258;2023-03-12T05:00:34;4.70;;;2.70;;
41755;SDS011;27435;48.480;9.258;2023-03-12T05:03:00;6.20;;;2.40;;
41755;SDS011;27435;48.480;9.258;2023-03-12T05:05:25;4.97;;;2.20;;
41755;SDS011;27435;48.480;9.258;2023-03-12T05:07:51;6.97;;;2.33;;
41755;SDS011;27435;48.480;9.258;2023-03-12T05:10:17;4.43;;;2.10;;
41755;SDS011;27435;48.480;9.258;2023-03-12T05:12:42;7.13;;;2.17;;
41755;SDS011;27435;48.480;9.258;2023-03-12T05:15:08;4.00;;;2.13;;
41755;SDS011;27435;48.480;9.258;2023-03-12T05:17:34;4.43;;;2.23;;
41755;SDS011;27435;48.480;9.258;2023-03-12T05:19:59;5.03;;;1.87;;
41755;SDS011;27435;48.480;9.258;2023-03-12T05:22:25;4.20;;;1.67;;
41755;SDS011;27435;48.480;9.258;2023-03-12T05:24:51;4.10;;;1.80;;
41755;SDS011;27435;48.480;9.258;2023-03-12T05:27:16;4.20;;;2.03;;
41755;SDS011;27435;48.480;9.258;2023-03-12T05:29:42;5.20;;;2.50;;
41755;SDS011;27435;48.480;9.258;2023-03-12T05:32:08;7.67;;;2.57;;
41755;SDS011;27435;48.480;9.258;2023-03-12T05:34:33;4.60;;;2.80;;
41755;SDS011;27435;48.480;9.258;2023-03-12T05:36:59;8.33;;;3.13;;
41755;SDS011;27435;48.480;9.258;2023-03-12T05:39:25;11.40;;;3.00;;
41755;SDS011;27435;48.480;9.258;2023-03-12T05:41:51;10.27;;;3.80;;
41755;SDS011;27435;48.480;9.258;2023-03-12T05:44:20;7.53;;;3.80;;
41755;SDS011;27435;48.480;9.258;2023-03-12T05:46:46;9.20;;;4.30;;
41755;SDS011;27435;48.480;9.258;2023-03-12T05:49:12;9.40;;;4.07;;
41755;SDS011;27435;48.480;9.258;2023-03-12T05:51:38;9.17;;;4.60;;
41755;SDS011;27435;48.480;9.258;2023-03-12T05:54:03;12.70;;;4.90;;
41755;SDS011;27435;48.480;9.258;2023-03-12T05:56:29;13.10;;;5.63;;
41755;SDS011;27435;48.480;9.258;2023-03-12T05:58:56;12.50;;;6.10;;
41755;SDS011;27435;48.480;9.258;2023-03-12T06:01:23;11.40;;;6.10;;
41755;SDS011;27435;48.480;9.258;2023-03-12T06:03:50;12.33;;;6.30;;
41755;SDS011;27435;48.480;9.258;2023-03-12T06:06:16;16.30;;;7.73;;
41755;SDS011;27435;48.480;9.258;2023-03-12T06:08:42;11.80;;;6.27;;
41755;SDS011;27435;48.480;9.258;2023-03-12T06:11:08;15.33;;;7.63;;
41755;SDS011;27435;48.480;9.258;2023-03-12T06:13:33;16.77;;;7.67;;
41755;SDS011;27435;48.480;9.258;2023-03-12T06:16:24;14.30;;;7.63;;
41755;SDS011;27435;48.480;9.258;2023-03-12T06:18:53;14.63;;;7.47;;
41755;SDS011;27435;48.480;9.258;2023-03-12T06:21:25;13.10;;;7.67;;
41755;SDS011;27435;48.480;9.258;2023-03-12T06:23:52;17.03;;;8.23;;
41755;SDS011;27435;48.480;9.258;2023-03-12T06:26:18;14.67;;;7.73;;
41755;SDS011;27435;48.480;9.258;2023-03-12T06:28:45;16.47;;;8.53;;
41755;SDS011;27435;48.480;9.258;2023-03-12T06:31:12;14.17;;;7.67;;
41755;SDS011;27435;48.480;9.258;2023-03-12T06:33:38;19.50;;;8.83;;
41755;SDS011;27435;48.480;9.258;2023-03-12T06:36:04;17.07;;;8.63;;
41755;SDS011;27435;48.480;9.258;2023-03-12T06:38:31;18.70;;;8.77;;
41755;SDS011;27435;48.480;9.258;2023-03-12T06:40:58;19.70;;;9.57;;
41755;SDS011;27435;48.480;9.258;2023-03-12T06:43:26;18.00;;;8.63;;
41755;SDS011;27435;48.480;9.258;2023-03-12T06:45:54;18.63;;;8.87;;
41755;SDS011;27435;48.480;9.258;2023-03-12T06:48:21;20.70;;;9.80;;
41755;SDS011;27435;48.480;9.258;2023-03-12T06:50:47;20.40;;;9.67;;
41755;SDS011;27435;48.480;9.258;2023-03-12T06:53:13;19.93;;;10.03;;
41755;SDS011;27435;48.480;9.258;2023-03-12T06:55:39;20.07;;;10.20;;
41755;SDS011;27435;48.480;9.258;2023-03-12T06:58:04;18.83;;;9.33;;
41755;SDS011;27435;48.480;9.258;2023-03-12T07:00:31;20.33;;;10.13;;
41755;SDS011;27435;48.480;9.258;2023-03-12T07:02:57;22.20;;;10.30;;
41755;SDS011;27435;48.480;9.258;2023-03-12T07:05:23;17.43;;;9.17;;
41755;SDS011;27435;48.480;9.258;2023-03-12T07:07:49;20.07;;;9.83;;
41755;SDS011;27435;48.480;9.258;2023-03-12T07:10:15;17.90;;;9.50;;
41755;SDS011;27435;48.480;9.258;2023-03-12T07:12:40;18.90;;;9.70;;
41755;SDS011;27435;48.480;9.258;2023-03-12T07:15:06;18.90;;;9.57;;
41755;SDS011;27435;48.480;9.258;2023-03-12T07:17:32;21.23;;;9.73;;
41755;SDS011;27435;48.480;9.258;2023-03-12T07:19:58;18.83;;;8.97;;
41755;SDS011;27435;48.480;9.258;2023-03-12T07:22:23;19.17;;;9.30;;
41755;SDS011;27435;48.480;9.258;2023-03-12T07:24:49;18.57;;;10.10;;
41755;SDS011;27435;48.480;9.258;2023-03-12T07:27:15;21.20;;;11.07;;
41755;SDS011;27435;48.480;9.258;2023-03-12T07:29:41;19.63;;;9.77;;
41755;SDS011;27435;48.480;9.258;2023-03-12T07:32:08;18.17;;;9.30;;
41755;SDS011;27435;48.480;9.258;2023-03-12T07:34:34;17.17;;;9.17;;
41755;SDS011;27435;48.480;9.258;2023-03-12T07:36:59;17.93;;;9.00;;
41755;SDS011;27435;48.480;9.258;2023-03-12T07:39:25;16.07;;;8.13;;
41755;SDS011;27435;48.480;9.258;2023-03-12T07:41:51;17.47;;;8.87;;
41755;SDS011;27435;48.480;9.258;2023-03-12T07:44:16;14.57;;;7.93;;
41755;SDS011;27435;48.480;9.258;2023-03-12T07:46:42;17.03;;;8.67;;
41755;SDS011;27435;48.480;9.258;2023-03-12T07:49:08;17.17;;;8.53;;
41755;SDS011;27435;48.480;9.258;2023-03-12T07:51:34;15.20;;;8.47;;
41755;SDS011;27435;48.480;9.258;2023-03-12T07:53:59;17.93;;;7.97;;
41755;SDS011;27435;48.480;9.258;2023-03-12T07:56:25;19.47;;;9.20;;
41755;SDS011;27435;48.480;9.258;2023-03-12T07:58:51;16.40;;;8.60;;
41755;SDS011;27435;48.480;9.258;2023-03-12T08:01:17;16.97;;;7.83;;
41755;SDS011;27435;48.480;9.258;2023-03-12T08:03:43;13.00;;;7.40;;
41755;SDS011;27435;48.480;9.258;2023-03-12T08:06:08;15.03;;;7.27;;
41755;SDS011;27435;48.480;9.258;2023-03-12T08:08:34;14.37;;;7.33;;
41755;SDS011;27435;48.480;9.258;2023-03-12T08:11:02;14.53;;;7.33;;
41755;SDS011;27435;48.480;9.258;2023-03-12T08:13:28;13.40;;;7.07;;
41755;SDS011;27435;48.480;9.258;2023-03-12T08:15:54;13.60;;;7.70;;
41755;SDS011;27435;48.480;9.258;2023-03-12T08:18:20;9.47;;;5.40;;
41755;SDS011;27435;48.480;9.258;2023-03-12T08:20:48;13.73;;;5.17;;
41755;SDS011;27435;48.480;9.258;2023-03-12T08:23:16;8.43;;;4.70;;
41755;SDS011;27435;48.480;9.258;2023-03-12T08:25:43;7.10;;;3.57;;
41755;SDS011;27435;48.480;9.258;2023-03-12T08:28:13;8.07;;;4.20;;
41755;SDS011;27435;48.480;9.258;2023-03-12T08:30:50;6.77;;;3.83;;
41755;SDS011;27435;48.480;9.258;2023-03-12T08:33:17;11.50;;;5.47;;
41755;SDS011;27435;48.480;9.258;2023-03-12T08:35:44;7.27;;;3.73;;
41755;SDS011;27435;48.480;9.258;2023-03-12T08:38:10;6.10;;;3.40;;
41755;SDS011;27435;48.480;9.258;2023-03-12T08:40:36;8.60;;;3.90;;
41755;SDS011;27435;48.480;9.258;2023-03-12T08:43:02;11.03;;;4.43;;
41755;SDS011;27435;48.480;9.258;2023-03-12T08:45:28;6.50;;;3.53;;
41755;SDS011;27435;48.480;9.258;2023-03-12T08:47:54;6.60;;;3.30;;
41755;SDS011;27435;48.480;9.258;2023-03-12T08:50:19;5.73;;;3.07;;
41755;SDS011;27435;48.480;9.258;2023-03-12T08:52:47;5.77;;;2.67;;
41755;SDS011;27435;48.480;9.258;2023-03-12T08:55:12;5.60;;;3.37;;
41755;SDS011;27435;48.480;9.258;2023-03-12T08:57:38;5.57;;;2.70;;
41755;SDS011;27435;48.480;9.258;2023-03-12T09:00:05;6.10;;;2.53;;
41755;SDS011;27435;48.480;9.258;2023-03-12T09:02:35;5.40;;;2.60;;
41755;SDS011;27435;48.480;9.258;2023-03-12T09:05:01;3.77;;;1.87;;
41755;SDS011;27435;48.480;9.258;2023-03-12T09:07:29;6.03;;;2.97;;
41755;SDS011;27435;48.480;9.258;2023-03-12T09:09:55;4.57;;;2.20;;
41755;SDS011;27435;48.480;9.258;2023-03-12T09:12:21;4.10;;;2.17;;
41755;SDS011;27435;48.480;9.258;2023-03-12T09:14:48;5.60;;;2.20;;
41755;SDS011;27435;48.480;9.258;2023-03-12T09:17:13;4.37;;;2.43;;
41755;SDS011;27435;48.480;9.258;2023-03-12T09:19:39;3.97;;;2.20;;
41755;SDS011;27435;48.480;9.258;2023-03-12T09:22:05;5.70;;;2.13;;
41755;SDS011;27435;48.480;9.258;2023-03-12T09:24:30;3.10;;;1.80;;
41755;SDS011;27435;48.480;9.258;2023-03-12T09:26:57;3.73;;;1.93;;
41755;SDS011;27435;48.480;9.258;2023-03-12T09:29:23;4.17;;;2.00;;
41755;SDS011;27435;48.480;9.258;2023-03-12T09:31:49;6.27;;;2.17;;
41755;SDS011;27435;48.480;9.258;2023-03-12T09:34:15;4.70;;;2.33;;
41755;SDS011;27435;48.480;9.258;2023-03-12T09:36:41;5.13;;;2.70;;
41755;SDS011;27435;48.480;9.258;2023-03-12T09:39:07;5.47;;;2.40;;
41755;SDS011;27435;48.480;9.258;2023-03-12T09:41:34;6.03;;;2.27;;
41755;SDS011;27435;48.480;9.258;2023-03-12T09:49:05;4.03;;;1.90;;
41755;SDS011;27435;48.480;9.258;2023-03-12T09:51:40;5.70;;;2.33;;
41755;SDS011;27435;48.480;9.258;2023-03-12T09:54:20;5.00;;;2.50;;
41755;SDS011;27435;48.480;9.258;2023-03-12T09:56:52;7.10;;;2.37;;
41755;SDS011;27435;48.480;9.258;2023-03-12T09:59:21;5.00;;;1.97;;
41755;SDS011;27435;48.480;9.258;2023-03-12T10:01:51;8.33;;;2.60;;
41755;SDS011;27435;48.480;9.258;2023-03-12T10:04:35;4.80;;;1.45;;
41755;SDS011;27435;48.480;9.258;2023-03-12T10:23:45;7.10;;;1.42;;
41755;SDS011;27435;48.480;9.258;2023-03-12T10:26:37;2.20;;;0.80;;
41755;SDS011;27435;48.480;9.258;2023-03-12T10:29:21;2.03;;;0.80;;
41755;SDS011;27435;48.480;9.258;2023-03-12T10:31:59;4.57;;;1.30;;
41755;SDS011;27435;48.480;9.258;2023-03-12T10:34:30;4.17;;;1.07;;
41755;SDS011;27435;48.480;9.258;2023-03-12T10:37:21;5.83;;;1.60;;
41755;SDS011;27435;48.480;9.258;2023-03-12T10:39:48;6.60;;;1.57;;
41755;SDS011;27435;48.480;9.258;2023-03-12T10:42:18;4.17;;;1.00;;
41755;SDS011;27435;48.480;9.258;2023-03-12T10:44:46;6.07;;;1.57;;
41755;SDS011;27435;48.480;9.258;2023-03-12T10:47:30;3.80;;;1.40;;
41755;SDS011;27435;48.480;9.258;2023-03-12T10:50:42;6.87;;;1.77;;
41755;SDS011;27435;48.480;9.258;2023-03-12T10:52:50;3.87;;;1.23;;
41755;SDS011;27435;48.480;9.258;2023-03-12T10:55:22;5.77;;;1.70;;
41755;SDS011;27435;48.480;9.258;2023-03-12T10:57:50;8.07;;;2.37;;
41755;SDS011;27435;48.480;9.258;2023-03-12T11:00:21;6.53;;;1.80;;
41755;SDS011;27435;48.480;9.258;2023-03-12T11:03:04;8.23;;;1.53;;
41755;SDS011;27435;48.480;9.258;2023-03-12T11:05:34;3.63;;;1.00;;
41755;SDS011;27435;48.480;9.258;2023-03-12T11:08:17;2.50;;;1.20;;
41755;SDS011;27435;48.480;9.258;2023-03-12T11:10:44;1.87;;;0.97;;
41755;SDS011;27435;48.480;9.258;2023-03-12T11:13:22;7.27;;;2.40;;
41755;SDS011;27435;48.480;9.258;2023-03-12T11:15:53;7.03;;;1.20;;
41755;SDS011;27435;48.480;9.258;2023-03-12T11:18:34;2.47;;;0.83;;
41755;SDS011;27435;48.480;9.258;2023-03-12T11:23:33;4.67;;;1.33;;
41755;SDS011;27435;48.480;9.258;2023-03-12T11:26:10;6.90;;;1.90;;
41755;SDS011;27435;48.480;9.258;2023-03-12T11:28:42;4.60;;;1.17;;
41755;SDS011;27435;48.480;9.258;2023-03-12T11:31:17;8.43;;;1.40;;
41755;SDS011;27435;48.480;9.258;2023-03-12T11:33:51;8.40;;;2.37;;
41755;SDS011;27435;48.480;9.258;2023-03-12T11:36:30;8.13;;;1.50;;
41755;SDS011;27435;48.480;9.258;2023-03-12T11:39:19;4.77;;;1.90;;
41755;SDS011;27435;48.480;9.258;2023-03-12T11:41:56;4.50;;;1.00;;
41755;SDS011;27435;48.480;9.258;2023-03-12T12:00:52;4.23;;;1.13;;
41755;SDS011;27435;48.480;9.258;2023-03-12T12:06:27;5.67;;;0.80;;
41755;SDS011;27435;48.480;9.258;2023-03-12T12:11:27;6.03;;;0.90;;
41755;SDS011;27435;48.480;9.258;2023-03-12T12:14:04;4.20;;;1.57;;
41755;SDS011;27435;48.480;9.258;2023-03-12T12:16:44;3.30;;;0.70;;
41755;SDS011;27435;48.480;9.258;2023-03-12T12:19:18;6.10;;;1.20;;
41755;SDS011;27435;48.480;9.258;2023-03-12T12:22:11;3.97;;;0.93;;
41755;SDS011;27435;48.480;9.258;2023-03-12T12:30:47;6.67;;;1.50;;
41755;SDS011;27435;48.480;9.258;2023-03-12T12:35:47;6.10;;;1.10;;
41755;SDS011;27435;48.480;9.258;2023-03-12T12:40:50;5.33;;;1.30;;
41755;SDS011;27435;48.480;9.258;2023-03-12T12:43:24;5.67;;;1.30;;
41755;SDS011;27435;48.480;9.258;2023-03-12T12:45:58;3.83;;;1.00;;
41755;SDS011;27435;48.480;9.258;2023-03-12T12:51:13;7.90;;;2.03;;
41755;SDS011;27435;48.480;9.258;2023-03-12T12:58:59;5.40;;;1.57;;
41755;SDS011;27435;48.480;9.258;2023-03-12T13:01:28;2.63;;;0.77;;
41755;SDS011;27435;48.480;9.258;2023-03-12T13:04:01;6.60;;;1.07;;
41755;SDS011;27435;48.480;9.258;2023-03-12T13:09:20;6.87;;;1.20;;
41755;SDS011;27435;48.480;9.258;2023-03-12T13:11:58;5.93;;;1.40;;
41755;SDS011;27435;48.480;9.258;2023-03-12T13:14:37;7.43;;;1.00;;
41755;SDS011;27435;48.480;9.258;2023-03-12T13:17:06;5.20;;;1.30;;
41755;SDS011;27435;48.480;9.258;2023-03-12T13:19:43;12.60;;;2.77;;
41755;SDS011;27435;48.480;9.258;2023-03-12T13:22:14;6.20;;;1.30;;
41755;SDS011;27435;48.480;9.258;2023-03-12T13:24:45;2.73;;;0.93;;
41755;SDS011;27435;48.480;9.258;2023-03-12T13:27:39;3.03;;;1.00;;
41755;SDS011;27435;48.480;9.258;2023-03-12T13:30:26;5.73;;;1.30;;
41755;SDS011;27435;48.480;9.258;2023-03-12T13:43:01;4.70;;;1.83;;
41755;SDS011;27435;48.480;9.258;2023-03-12T13:48:45;6.00;;;1.63;;
41755;SDS011;27435;48.480;9.258;2023-03-12T13:51:16;4.17;;;1.10;;
41755;SDS011;27435;48.480;9.258;2023-03-12T13:53:47;4.13;;;0.83;;
41755;SDS011;27435;48.480;9.258;2023-03-12T13:56:17;2.87;;;0.77;;
41755;SDS011;27435;48.480;9.258;2023-03-12T13:59:01;4.87;;;1.20;;
41755;SDS011;27435;48.480;9.258;2023-03-12T14:01:34;3.47;;;0.98;;
41755;SDS011;27435;48.480;9.258;2023-03-12T14:04:05;5.93;;;1.63;;
41755;SDS011;27435;48.480;9.258;2023-03-12T14:06:37;10.23;;;4.23;;
41755;SDS011;27435;48.480;9.258;2023-03-12T14:09:33;5.57;;;1.90;;
41755;SDS011;27435;48.480;9.258;2023-03-12T14:12:21;4.20;;;1.00;;
41755;SDS011;27435;48.480;9.258;2023-03-12T14:14:57;3.17;;;1.20;;
41755;SDS011;27435;48.480;9.258;2023-03-12T14:17:31;3.73;;;1.10;;
41755;SDS011;27435;48.480;9.258;2023-03-12T14:22:29;4.67;;;1.33;;
41755;SDS011;27435;48.480;9.258;2023-03-12T14:24:58;3.00;;;1.27;;
41755;SDS011;27435;48.480;9.258;2023-03-12T14:27:35;3.77;;;1.00;;
41755;SDS011;27435;48.480;9.258;2023-03-12T14:32:39;3.63;;;0.90;;
41755;SDS011;27435;48.480;9.258;2023-03-12T14:37:39;3.53;;;0.80;;
41755;SDS011;27435;48.480;9.258;2023-03-12T14:42:58;5.27;;;0.93;;
41755;SDS011;27435;48.480;9.258;2023-03-12T14:45:24;1.93;;;0.90;;
41755;SDS011;27435;48.480;9.258;2023-03-12T14:47:52;3.70;;;0.80;;
41755;SDS011;27435;48.480;9.258;2023-03-12T14:55:35;5.20;;;1.47;;
41755;SDS011;27435;48.480;9.258;2023-03-12T14:58:02;5.30;;;2.10;;
41755;SDS011;27435;48.480;9.258;2023-03-12T15:00:30;8.63;;;1.10;;
41755;SDS011;27435;48.480;9.258;2023-03-12T15:02:57;6.23;;;1.60;;
41755;SDS011;27435;48.480;9.258;2023-03-12T15:05:26;7.50;;;2.57;;
41755;SDS011;27435;48.480;9.258;2023-03-12T15:07:53;5.63;;;1.50;;
41755;SDS011;27435;48.480;9.258;2023-03-12T15:10:26;3.03;;;1.17;;
41755;SDS011;27435;48.480;9.258;2023-03-12T15:12:54;7.30;;;1.83;;
41755;SDS011;27435;48.480;9.258;2023-03-12T15:18:15;7.57;;;3.05;;
41755;SDS011;27435;48.480;9.258;2023-03-12T15:20:52;14.73;;;4.30;;
41755;SDS011;27435;48.480;9.258;2023-03-12T15:23:20;6.27;;;1.47;;
41755;SDS011;27435;48.480;9.258;2023-03-12T15:28:33;5.45;;;1.63;;
41755;SDS011;27435;48.480;9.258;2023-03-12T15:31:03;4.13;;;1.20;;
41755;SDS011;27435;48.480;9.258;2023-03-12T15:33:29;5.13;;;1.30;;
41755;SDS011;27435;48.480;9.258;2023-03-12T15:38:42;7.40;;;1.60;;
41755;SDS011;27435;48.480;9.258;2023-03-12T15:43:42;9.00;;;2.63;;
41755;SDS011;27435;48.480;9.258;2023-03-12T15:46:10;4.27;;;1.10;;
41755;SDS011;27435;48.480;9.258;2023-03-12T15:48:38;4.17;;;1.00;;
41755;SDS011;27435;48.480;9.258;2023-03-12T15:51:25;4.63;;;1.30;;
41755;SDS011;27435;48.480;9.258;2023-03-12T15:53:59;6.30;;;1.20;;
41755;SDS011;27435;48.480;9.258;2023-03-12T15:56:26;3.17;;;1.10;;
41755;SDS011;27435;48.480;9.258;2023-03-12T15:59:01;3.10;;;1.27;;
41755;SDS011;27435;48.480;9.258;2023-03-12T16:01:43;6.75;;;1.90;;
41755;SDS011;27435;48.480;9.258;2023-03-12T16:04:19;3.63;;;1.17;;
41755;SDS011;27435;48.480;9.258;2023-03-12T16:06:49;3.97;;;1.60;;
41755;SDS011;27435;48.480;9.258;2023-03-12T16:09:16;5.70;;;1.40;;
41755;SDS011;27435;48.480;9.258;2023-03-12T16:11:43;16.47;;;5.93;;
41755;SDS011;27435;48.480;9.258;2023-03-12T16:14:12;9.10;;;3.40;;
41755;SDS011;27435;48.480;9.258;2023-03-12T16:16:39;12.40;;;4.27;;
41755;SDS011;27435;48.480;9.258;2023-03-12T16:19:14;16.60;;;7.47;;
41755;SDS011;27435;48.480;9.258;2023-03-12T16:21:42;7.77;;;2.90;;
41755;SDS011;27435;48.480;9.258;2023-03-12T16:24:08;8.83;;;3.40;;
41755;SDS011;27435;48.480;9.258;2023-03-12T16:26:34;7.40;;;2.77;;
41755;SDS011;27435;48.480;9.258;2023-03-12T16:29:01;7.70;;;1.40;;
41755;SDS011;27435;48.480;9.258;2023-03-12T16:31:28;4.87;;;1.27;;
41755;SDS011;27435;48.480;9.258;2023-03-12T16:33:54;7.77;;;1.43;;
41755;SDS011;27435;48.480;9.258;2023-03-12T16:36:19;6.60;;;2.40;;
41755;SDS011;27435;48.480;9.258;2023-03-12T16:38:45;5.30;;;1.53;;
41755;SDS011;27435;48.480;9.258;2023-03-12T16:41:12;4.93;;;1.40;;
41755;SDS011;27435;48.480;9.258;2023-03-12T16:43:40;4.97;;;1.50;;
41755;SDS011;27435;48.480;9.258;2023-03-12T16:46:09;12.70;;;2.07;;
41755;SDS011;27435;48.480;9.258;2023-03-12T16:48:35;6.90;;;2.63;;
41755;SDS011;27435;48.480;9.258;2023-03-12T16:51:00;4.00;;;2.00;;
41755;SDS011;27435;48.480;9.258;2023-03-12T16:53:27;6.67;;;2.20;;